Norfolk International Airport
KORF : now visible

Airfield :











YOU CAN JOIN US ON...

 
LOGIN :

Register | Disclaimer

   EN    FR    IT 

 









Legend :    VFR   Marginal VFR   IFR   Intensive IFR   Very Intensive IFR
Visi :
Ceiling :
>= 8 km
>= 3000ft
5 to 8 km
1000 to 3000 ft
1500m to 5 km
500 to 1000 ft
800 to 1500m
200 to 500 ft
< 800m
< 200 ft
Symbols :   Thunderstorms  Fog  Heavy snow  Heavy precipitations  Wind > 20 kt






- Airport Elevation : 26 ft
- IATA code : ORF


KORF - Norfolk International

CURRENT METAR :
  • 212051Z 32010G18KT 10SM BKN090 19/11 A2968 RMK AO2 SLP048 60008 T01940111 53023

EXPIRED METARs :
  • 211951Z 31009G17KT 280V350 10SM FEW033 FEW065 19/13 A2966 RMK AO2 PK WND 29032/1920 LTG DSNT NE AND E RAB21E39 SLP042 P0008 T01890128
  • 211925Z 29012G32KT 240V320 2 1/2SM VCTS -RA FEW031 SCT065 BKN080 18/12 A2968 RMK AO2 PK WND 29032/1920 LTG DSNT NW-E RAB21 P0000 T01830117
  • 211902Z 26010G18KT 10SM SCT070 BKN090 BKN110 24/11 A2961 RMK AO2 LTG DSNT ALQDS T02440106
  • 211851Z 28009G21KT 10SM VCTS SCT070 BKN090 24/09 A2961 RMK AO2 PK WND 23028/1752 LTG DSNT ALQDS RAB05E21 SLP028 P0000 T02390094

TAF KORF
Valid from the 21 at 20:00 until the 22 at 18:00 UTC


211959Z 2120/2218 31012G25KT P6SM VCSH SCT035 BKN120
FM220100 31018G30KT P6SM SKC
KZDC FIR / North America



MET'MAP, your aeronautical weather chart ! - Copyright ORBIFLY December 2007 - Disclaimer

ORBIFLY MET'MAP TEAM :

Programming & Development : Alexandra Zaïnal
Concept & original design : Baudouin d'Aumeries
Assistance for programming : Marc-Olivier Méhu
Technical & hardware support : Manuel Goepfert

Contact : metmap@orbifly.com




SOURCES & CREDITS :

   NOAA       Earth
Advisory